createdAt,value
2022-11-28T00:01:37.614Z,-5.90
2022-11-28T00:04:05.783Z,-5.90
2022-11-28T00:06:35.532Z,-5.90
2022-11-28T00:09:02.904Z,-5.90
2022-11-28T00:11:30.368Z,-5.90
2022-11-28T00:13:57.637Z,-6.00
2022-11-28T00:16:25.510Z,-6.00
2022-11-28T00:18:55.393Z,-6.00
2022-11-28T00:21:23.256Z,-5.90
2022-11-28T00:23:51.157Z,-5.80
2022-11-28T00:26:33.611Z,-5.80
2022-11-28T00:29:01.237Z,-5.80
2022-11-28T00:31:33.029Z,-5.70
2022-11-28T00:34:00.860Z,-5.70
2022-11-28T00:36:30.147Z,-5.70
2022-11-28T00:38:57.498Z,-5.60
2022-11-28T00:41:29.172Z,-5.60
2022-11-28T00:43:57.504Z,-5.70
2022-11-28T00:46:25.470Z,-5.80
2022-11-28T00:48:53.527Z,-5.80
2022-11-28T00:51:27.783Z,-5.90
2022-11-28T00:53:57.144Z,-5.80
2022-11-28T00:56:28.881Z,-5.90
2022-11-28T00:58:56.890Z,-5.90
2022-11-28T01:01:31.493Z,-6.00
2022-11-28T01:04:02.666Z,-6.10
2022-11-28T01:06:39.980Z,-6.10
2022-11-28T01:09:12.995Z,-6.20
2022-11-28T01:11:43.135Z,-6.20
2022-11-28T01:14:11.374Z,-6.20
2022-11-28T01:16:39.777Z,-6.20
2022-11-28T01:19:07.545Z,-6.20
2022-11-28T01:21:36.021Z,-6.10
2022-11-28T01:24:03.752Z,-6.00
2022-11-28T01:26:31.850Z,-6.10
2022-11-28T01:29:00.921Z,-6.20
2022-11-28T01:31:30.290Z,-6.10
2022-11-28T01:33:58.047Z,-6.10
2022-11-28T01:36:26.408Z,-6.00
2022-11-28T01:38:53.817Z,-6.00
2022-11-28T01:41:25.236Z,-6.00
2022-11-28T01:44:28.935Z,-6.00
2022-11-28T01:46:56.665Z,-6.00
2022-11-28T01:49:36.053Z,-6.10
2022-11-28T01:52:13.328Z,-6.20
2022-11-28T01:54:46.336Z,-6.20
2022-11-28T01:57:20.592Z,-6.20
2022-11-28T02:00:11.994Z,-6.20
2022-11-28T02:02:49.634Z,-6.20
2022-11-28T02:05:19.394Z,-6.30
2022-11-28T02:07:47.585Z,-6.30
2022-11-28T02:10:40.736Z,-6.20
2022-11-28T02:13:22.513Z,-6.20
2022-11-28T02:16:10.808Z,-6.20
2022-11-28T02:18:53.565Z,-6.20
2022-11-28T02:21:52.894Z,-6.20
2022-11-28T02:25:03.953Z,-6.30
2022-11-28T02:27:52.175Z,-6.20
2022-11-28T02:30:30.149Z,-6.30
2022-11-28T02:33:35.704Z,-6.30
2022-11-28T02:36:50.215Z,-6.30
2022-11-28T02:39:29.494Z,-6.20
2022-11-28T02:42:26.656Z,-6.20
2022-11-28T02:45:55.576Z,-6.20
2022-11-28T02:48:36.448Z,-6.10
2022-11-28T02:51:31.400Z,-6.20
2022-11-28T02:54:02.245Z,-6.30
2022-11-28T02:56:29.541Z,-6.20
2022-11-28T02:58:56.795Z,-6.20
2022-11-28T03:01:32.917Z,-6.20
2022-11-28T03:04:04.225Z,-6.30
2022-11-28T03:07:12.401Z,-6.20
2022-11-28T03:10:08.501Z,-6.20
2022-11-28T03:12:44.632Z,-6.10
2022-11-28T03:15:16.879Z,-6.10
2022-11-28T03:18:13.817Z,-6.00
2022-11-28T03:21:22.598Z,-6.10
2022-11-28T03:24:10.831Z,-6.10
2022-11-28T03:26:54.175Z,-6.10
2022-11-28T03:29:37.081Z,-6.00
2022-11-28T03:32:13.205Z,-6.00
2022-11-28T03:34:45.876Z,-5.90
2022-11-28T03:37:22.538Z,-5.90
2022-11-28T03:40:00.186Z,-5.90
2022-11-28T03:42:34.596Z,-5.90
2022-11-28T03:45:26.487Z,-6.00
2022-11-28T03:48:05.339Z,-6.10
2022-11-28T03:51:03.452Z,-6.20
2022-11-28T03:53:50.421Z,-6.20
2022-11-28T03:56:39.622Z,-6.20
2022-11-28T03:59:34.871Z,-6.10
2022-11-28T04:02:29.635Z,-6.10
2022-11-28T04:05:38.283Z,-6.00
2022-11-28T04:08:19.702Z,-6.10
2022-11-28T04:11:12.810Z,-6.20
2022-11-28T04:13:58.076Z,-6.20
2022-11-28T04:16:53.739Z,-6.20
2022-11-28T04:19:34.043Z,-6.20
2022-11-28T04:22:42.910Z,-6.20
2022-11-28T04:25:19.552Z,-6.20
2022-11-28T04:27:59.602Z,-6.20
2022-11-28T04:30:27.676Z,-6.20
2022-11-28T04:33:03.898Z,-6.20
2022-11-28T04:35:41.109Z,-6.20
2022-11-28T04:38:12.108Z,-6.20
2022-11-28T04:41:08.333Z,-6.20
2022-11-28T04:43:50.002Z,-6.10
2022-11-28T04:46:26.817Z,-6.10
2022-11-28T04:48:54.507Z,-6.10
2022-11-28T04:51:24.830Z,-6.10
2022-11-28T04:54:01.552Z,-6.20
2022-11-28T04:56:41.140Z,-6.10
2022-11-28T04:59:11.016Z,-6.10
2022-11-28T05:01:42.867Z,-6.10
2022-11-28T05:04:10.606Z,-6.10
2022-11-28T05:06:37.813Z,-6.00
2022-11-28T05:09:05.738Z,-6.00
2022-11-28T05:11:32.847Z,-6.00
2022-11-28T05:14:00.045Z,-6.00
2022-11-28T05:16:27.370Z,-6.00
2022-11-28T05:18:54.767Z,-5.90
2022-11-28T05:21:22.022Z,-6.00
2022-11-28T05:23:49.235Z,-5.80
2022-11-28T05:26:21.788Z,-5.80
2022-11-28T05:28:51.214Z,-5.80
2022-11-28T05:31:21.557Z,-5.80
2022-11-28T05:33:49.073Z,-5.80
2022-11-28T05:36:17.920Z,-5.80
2022-11-28T05:38:45.240Z,-5.70
2022-11-28T05:41:33.290Z,-5.60
2022-11-28T05:44:01.172Z,-5.60
2022-11-28T05:46:29.929Z,-5.70
2022-11-28T05:48:57.573Z,-5.60
2022-11-28T05:51:25.250Z,-5.60
2022-11-28T05:53:52.690Z,-5.60
2022-11-28T05:56:21.684Z,-5.50
2022-11-28T05:58:49.475Z,-5.50
2022-11-28T06:01:24.274Z,-5.40
2022-11-28T06:03:52.566Z,-5.30
2022-11-28T06:06:22.285Z,-5.30
2022-11-28T06:08:51.795Z,-5.30
2022-11-28T06:11:24.534Z,-5.20
2022-11-28T06:13:51.922Z,-5.20
2022-11-28T06:16:23.461Z,-5.20
2022-11-28T06:19:00.566Z,-5.20
2022-11-28T06:21:29.934Z,-5.20
2022-11-28T06:24:00.318Z,-5.20
2022-11-28T06:26:29.474Z,-5.20
2022-11-28T06:28:56.825Z,-5.10
2022-11-28T06:31:29.979Z,-5.10
2022-11-28T06:33:58.951Z,-5.10
2022-11-28T06:36:27.512Z,-5.10
2022-11-28T06:38:54.900Z,-5.00
2022-11-28T06:41:22.848Z,-5.00
2022-11-28T06:43:50.146Z,-4.90
2022-11-28T06:46:21.908Z,-4.90
2022-11-28T06:48:51.950Z,-4.90
2022-11-28T06:51:20.661Z,-4.90
2022-11-28T06:53:48.364Z,-4.90
2022-11-28T06:56:19.676Z,-4.90
2022-11-28T06:58:47.752Z,-4.80
2022-11-28T07:01:21.667Z,-4.80
2022-11-28T07:03:49.482Z,-4.80
2022-11-28T07:06:18.979Z,-4.70
2022-11-28T07:08:46.785Z,-4.80
2022-11-28T07:11:25.028Z,-4.70
2022-11-28T07:13:54.005Z,-4.60
2022-11-28T07:16:41.367Z,-4.60
2022-11-28T07:19:11.133Z,-4.60
2022-11-28T07:21:38.430Z,-4.50
2022-11-28T07:24:06.091Z,-4.50
2022-11-28T07:26:33.617Z,-4.40
2022-11-28T07:29:01.060Z,-4.50
2022-11-28T07:31:28.338Z,-4.40
2022-11-28T07:33:55.527Z,-4.40
2022-11-28T07:36:27.134Z,-4.30
2022-11-28T07:38:58.254Z,-4.30
2022-11-28T07:41:29.785Z,-4.30
2022-11-28T07:44:01.652Z,-4.30
2022-11-28T07:46:31.471Z,-4.20
2022-11-28T07:48:59.264Z,-4.20
2022-11-28T07:51:31.017Z,-4.20
2022-11-28T07:53:58.967Z,-4.10
2022-11-28T07:56:50.166Z,-4.10
2022-11-28T07:59:17.005Z,-4.10
2022-11-28T08:01:44.341Z,-4.00
2022-11-28T08:04:11.688Z,-4.00
2022-11-28T08:06:42.643Z,-4.00
2022-11-28T08:09:10.096Z,-4.00
2022-11-28T08:11:37.969Z,-3.90
2022-11-28T08:14:05.848Z,-3.90
2022-11-28T08:16:33.688Z,-3.80
2022-11-28T08:19:02.718Z,-3.80
2022-11-28T08:21:33.547Z,-3.80
2022-11-28T08:24:03.615Z,-3.70
2022-11-28T08:26:32.743Z,-3.70
2022-11-28T08:29:02.106Z,-3.60
2022-11-28T08:31:38.714Z,-3.60
2022-11-28T08:34:09.826Z,-3.50
2022-11-28T08:36:37.847Z,-3.50
2022-11-28T08:39:23.277Z,-3.40
2022-11-28T08:41:51.126Z,-3.40
2022-11-28T08:44:18.323Z,-3.30
2022-11-28T08:46:45.615Z,-3.30
2022-11-28T08:49:12.715Z,-3.30
2022-11-28T08:51:39.999Z,-3.20
2022-11-28T08:54:07.131Z,-3.10
2022-11-28T08:56:34.573Z,-3.10
2022-11-28T08:59:01.854Z,-3.00
2022-11-28T09:01:29.244Z,-3.00
2022-11-28T09:03:57.041Z,-3.00
2022-11-28T09:06:25.175Z,-2.90
2022-11-28T09:08:53.270Z,-2.90
2022-11-28T09:11:22.670Z,-2.80
2022-11-28T09:13:50.873Z,-2.80
2022-11-28T09:16:18.728Z,-2.80
2022-11-28T09:18:46.008Z,-2.80
2022-11-28T09:21:15.734Z,-2.70
2022-11-28T09:23:44.887Z,-2.70
2022-11-28T09:26:21.978Z,-2.60
2022-11-28T09:28:49.371Z,-2.60
2022-11-28T09:31:18.607Z,-2.60
2022-11-28T09:33:47.244Z,-2.50
2022-11-28T09:36:18.701Z,-2.50
2022-11-28T09:38:46.374Z,-2.40
2022-11-28T09:41:28.874Z,-2.40
2022-11-28T09:44:06.958Z,-2.30
2022-11-28T09:46:38.780Z,-2.30
2022-11-28T09:49:56.480Z,-2.30
2022-11-28T09:52:39.949Z,-2.20
2022-11-28T09:55:47.026Z,-2.20
2022-11-28T09:58:49.553Z,-2.10
2022-11-28T10:01:30.265Z,-2.00
2022-11-28T10:04:13.946Z,-2.00
2022-11-28T10:06:59.535Z,-2.00
2022-11-28T10:09:57.912Z,-1.90
2022-11-28T10:13:05.457Z,-1.90
2022-11-28T10:15:53.900Z,-1.80
2022-11-28T10:18:45.445Z,-1.80
2022-11-28T10:21:27.290Z,-1.70
2022-11-28T10:24:02.100Z,-1.70
2022-11-28T10:26:33.250Z,-1.70
2022-11-28T10:29:24.400Z,-1.60
2022-11-28T10:31:57.565Z,-1.60
2022-11-28T10:34:36.355Z,-1.60
2022-11-28T10:37:28.643Z,-1.50
2022-11-28T10:40:12.726Z,-1.50
2022-11-28T10:42:52.177Z,-1.40
2022-11-28T10:45:35.156Z,-1.40
2022-11-28T10:48:37.957Z,-1.40
2022-11-28T10:51:11.962Z,-1.30
2022-11-28T10:54:04.660Z,-1.20
2022-11-28T10:56:56.919Z,-1.20
2022-11-28T10:59:33.070Z,-1.10
2022-11-28T11:02:24.061Z,-1.10
2022-11-28T11:04:51.328Z,-1.10
2022-11-28T11:07:30.440Z,-1.00
2022-11-28T11:12:43.047Z,-0.90
2022-11-28T11:15:23.333Z,-0.90
2022-11-28T11:17:50.591Z,-0.90
2022-11-28T11:20:34.564Z,-0.90
2022-11-28T11:23:20.102Z,-0.80
2022-11-28T11:25:56.755Z,-0.80
2022-11-28T11:28:39.460Z,-0.80
2022-11-28T11:31:31.749Z,-0.80
2022-11-28T11:34:13.206Z,-0.70
2022-11-28T11:36:40.390Z,-0.70
2022-11-28T11:39:23.546Z,-0.70
2022-11-28T11:42:19.571Z,-0.70
2022-11-28T11:44:47.114Z,-0.70
2022-11-28T11:47:14.359Z,-0.60
2022-11-28T11:50:03.395Z,-0.60
2022-11-28T11:52:31.183Z,-0.60
2022-11-28T11:55:13.778Z,-0.60
2022-11-28T11:57:51.651Z,-0.50
2022-11-28T12:00:24.581Z,-0.50
2022-11-28T12:03:12.886Z,-0.50
2022-11-28T12:06:13.216Z,-0.50
2022-11-28T12:09:02.913Z,-0.50
2022-11-28T12:11:43.792Z,-0.40
2022-11-28T12:14:35.156Z,-0.40
2022-11-28T12:17:47.916Z,-0.40
2022-11-28T12:21:04.278Z,-0.40
2022-11-28T12:23:48.942Z,-0.30
2022-11-28T12:26:32.791Z,-0.30
2022-11-28T12:29:22.271Z,-0.30
2022-11-28T12:32:34.996Z,-0.20
2022-11-28T12:35:32.039Z,-0.30
2022-11-28T12:41:46.044Z,-0.20
2022-11-28T12:44:53.387Z,-0.20
2022-11-28T12:47:32.695Z,-0.20
2022-11-28T12:50:36.816Z,-0.10
2022-11-28T12:53:52.293Z,-0.10
2022-11-28T12:56:44.234Z,-0.10
2022-11-28T12:59:44.567Z,-0.10
2022-11-28T13:02:39.213Z,-0.10
2022-11-28T13:05:52.068Z,-0.10
2022-11-28T13:09:23.118Z,-0.10
2022-11-28T13:12:12.022Z,-0.10
2022-11-28T13:15:02.980Z,-0.10
2022-11-28T13:17:51.337Z,-0.10
2022-11-28T13:20:41.606Z,-0.10
2022-11-28T13:24:13.651Z,-0.10
2022-11-28T13:26:55.535Z,-0.10
2022-11-28T13:29:47.898Z,-0.10
2022-11-28T13:32:21.769Z,-0.10
2022-11-28T13:34:50.370Z,-0.10
2022-11-28T13:40:57.085Z,-0.10
2022-11-28T13:44:01.373Z,0.00
2022-11-28T13:46:30.355Z,-0.10
2022-11-28T13:49:24.798Z,-0.10
2022-11-28T13:52:19.678Z,-0.10
2022-11-28T13:54:55.826Z,-0.10
2022-11-28T13:57:30.256Z,-0.10
2022-11-28T14:00:21.271Z,0.00
2022-11-28T14:02:58.352Z,0.00
2022-11-28T14:05:38.439Z,0.00
2022-11-28T14:08:07.518Z,0.00
2022-11-28T14:10:53.935Z,0.00
2022-11-28T14:13:41.074Z,0.00
2022-11-28T14:16:22.765Z,0.00
2022-11-28T14:19:01.759Z,0.00
2022-11-28T14:21:58.475Z,0.00
2022-11-28T14:24:45.048Z,-0.10
2022-11-28T14:27:26.207Z,-0.10
2022-11-28T14:29:57.789Z,0.00
2022-11-28T14:32:42.656Z,-0.10
2022-11-28T14:35:52.873Z,0.00
2022-11-28T14:38:32.313Z,-0.10
2022-11-28T14:41:08.786Z,-0.10
2022-11-28T14:43:47.205Z,-0.10
2022-11-28T14:46:29.287Z,-0.10
2022-11-28T14:48:59.780Z,-0.10
2022-11-28T14:51:45.713Z,-0.10
2022-11-28T14:54:43.974Z,-0.10
2022-11-28T14:57:19.704Z,-0.10
2022-11-28T14:59:48.127Z,-0.10
2022-11-28T15:02:48.910Z,-0.10
2022-11-28T15:05:44.111Z,-0.10
2022-11-28T15:08:27.507Z,-0.10
2022-11-28T15:11:15.321Z,-0.20
2022-11-28T15:14:25.808Z,-0.10
2022-11-28T15:17:01.374Z,-0.10
2022-11-28T15:19:40.589Z,-0.20
2022-11-28T15:22:38.425Z,-0.20
2022-11-28T15:25:18.536Z,-0.20
2022-11-28T15:27:45.703Z,-0.20
2022-11-28T15:30:22.621Z,-0.20
2022-11-28T15:32:50.493Z,-0.20
2022-11-28T15:35:18.672Z,-0.20
2022-11-28T15:37:56.617Z,-0.20
2022-11-28T15:40:34.389Z,-0.20
2022-11-28T15:43:08.038Z,-0.20
2022-11-28T15:45:40.477Z,-0.20
2022-11-28T15:48:47.075Z,-0.20
2022-11-28T15:51:35.288Z,-0.20
2022-11-28T15:54:03.096Z,-0.20
2022-11-28T15:56:30.653Z,-0.30
2022-11-28T15:58:58.028Z,-0.30
2022-11-28T16:01:27.976Z,-0.30
2022-11-28T16:04:10.579Z,-0.30
2022-11-28T16:06:41.891Z,-0.30
2022-11-28T16:09:25.322Z,-0.30
2022-11-28T16:11:55.019Z,-0.30
2022-11-28T16:14:32.964Z,-0.40
2022-11-28T16:17:06.842Z,-0.30
2022-11-28T16:19:37.810Z,-0.30
2022-11-28T16:22:10.946Z,-0.40
2022-11-28T16:24:54.450Z,-0.40
2022-11-28T16:27:40.244Z,-0.40
2022-11-28T16:30:26.194Z,-0.40
2022-11-28T16:32:56.175Z,-0.40
2022-11-28T16:35:37.354Z,-0.40
2022-11-28T16:38:22.866Z,-0.40
2022-11-28T16:40:51.932Z,-0.40
2022-11-28T16:43:35.720Z,-0.40
2022-11-28T16:46:07.102Z,-0.40
2022-11-28T16:48:38.552Z,-0.40
2022-11-28T16:51:11.760Z,-0.40
2022-11-28T16:53:50.505Z,-0.50
2022-11-28T16:56:43.287Z,-0.50
2022-11-28T16:59:20.471Z,-0.50
2022-11-28T17:01:52.752Z,-0.50
2022-11-28T17:04:29.749Z,-0.50
2022-11-28T17:07:01.045Z,-0.50
2022-11-28T17:09:28.390Z,-0.50
2022-11-28T17:12:26.610Z,-0.50
2022-11-28T17:14:55.743Z,-0.50
2022-11-28T17:17:24.584Z,-0.50
2022-11-28T17:19:52.150Z,-0.50
2022-11-28T17:22:26.315Z,-0.50
2022-11-28T17:24:59.573Z,-0.20
2022-11-28T17:27:27.153Z,-0.40
2022-11-28T17:29:54.365Z,-0.40
2022-11-28T17:32:21.525Z,-0.40
2022-11-28T17:34:48.765Z,-0.40
2022-11-28T17:37:15.942Z,-0.40
2022-11-28T17:39:43.580Z,-0.40
2022-11-28T17:42:11.285Z,-0.40
2022-11-28T17:44:38.502Z,-0.40
2022-11-28T17:47:06.234Z,-0.40
2022-11-28T17:49:33.350Z,-0.40
2022-11-28T17:52:00.523Z,-0.40
2022-11-28T17:54:28.197Z,-0.40
2022-11-28T17:56:55.703Z,-0.40
2022-11-28T17:59:25.248Z,-0.40
2022-11-28T18:01:52.537Z,-0.40
2022-11-28T18:04:19.935Z,-0.40
2022-11-28T18:06:48.135Z,-0.40
2022-11-28T18:09:15.846Z,-0.40
2022-11-28T18:11:45.083Z,-0.40
2022-11-28T18:14:12.888Z,-0.40
2022-11-28T18:16:44.946Z,-0.50
2022-11-28T18:19:12.243Z,-0.50
2022-11-28T18:21:39.602Z,-0.50
2022-11-28T18:24:07.293Z,-0.50
2022-11-28T18:26:34.658Z,-0.50
2022-11-28T18:29:01.830Z,-0.50
2022-11-28T18:31:30.862Z,-0.50
2022-11-28T18:34:03.786Z,-0.60
2022-11-28T18:36:33.776Z,-0.60
2022-11-28T18:39:08.225Z,-0.50
2022-11-28T18:41:35.496Z,-0.50
2022-11-28T18:44:04.918Z,-0.50
2022-11-28T18:46:34.473Z,-0.50
2022-11-28T18:49:01.910Z,-0.60
2022-11-28T18:51:35.044Z,-0.50
2022-11-28T18:54:05.432Z,-0.50
2022-11-28T18:56:33.080Z,-0.60
2022-11-28T18:59:00.368Z,-0.60
2022-11-28T19:01:31.563Z,-0.60
2022-11-28T19:04:09.692Z,-0.60
2022-11-28T19:06:39.777Z,-0.60
2022-11-28T19:09:14.655Z,-0.60
2022-11-28T19:11:43.517Z,-0.60
2022-11-28T19:14:18.904Z,-0.60
2022-11-28T19:16:46.276Z,-0.60
2022-11-28T19:19:13.549Z,-0.60
2022-11-28T19:21:41.372Z,-0.60
2022-11-28T19:24:09.039Z,-0.60
2022-11-28T19:26:36.359Z,-0.60
2022-11-28T19:29:05.290Z,-0.60
2022-11-28T19:31:36.821Z,-0.60
2022-11-28T19:34:14.193Z,-0.60
2022-11-28T19:36:46.594Z,-0.60
2022-11-28T19:39:21.214Z,-0.60
2022-11-28T19:41:50.444Z,-0.60
2022-11-28T19:44:18.274Z,-0.60
2022-11-28T19:46:45.919Z,-0.60
2022-11-28T19:49:23.301Z,-0.60
2022-11-28T19:51:51.556Z,-0.60
2022-11-28T19:54:19.314Z,-0.60
2022-11-28T19:56:47.564Z,-0.60
2022-11-28T19:59:15.139Z,-0.60
2022-11-28T20:01:42.908Z,-0.60
2022-11-28T20:04:10.997Z,-0.60
2022-11-28T20:06:38.420Z,-0.60
2022-11-28T20:09:19.261Z,-0.60
2022-11-28T20:11:47.085Z,-0.60
2022-11-28T20:14:20.507Z,-0.60
2022-11-28T20:16:48.006Z,-0.60
2022-11-28T20:19:21.037Z,-0.60
2022-11-28T20:21:48.381Z,-0.60
2022-11-28T20:24:16.202Z,-0.60
2022-11-28T20:26:44.308Z,-0.60
2022-11-28T20:29:16.489Z,-0.60
2022-11-28T20:31:46.881Z,-0.60
2022-11-28T20:34:16.800Z,-0.60
2022-11-28T20:36:44.594Z,-0.60
2022-11-28T20:39:12.677Z,-0.60
2022-11-28T20:41:40.034Z,-0.60
2022-11-28T20:44:07.304Z,-0.50
2022-11-28T20:46:34.836Z,-0.50
2022-11-28T20:49:05.290Z,-0.50
2022-11-28T20:51:34.864Z,-0.50
2022-11-28T20:54:04.301Z,-0.60
2022-11-28T20:56:58.003Z,-0.60
2022-11-28T20:59:24.177Z,-0.60
2022-11-28T21:01:51.366Z,-0.60
2022-11-28T21:04:19.126Z,-0.60
2022-11-28T21:06:48.215Z,-0.60
2022-11-28T21:09:16.814Z,-0.60
2022-11-28T21:11:56.743Z,-0.60
2022-11-28T21:14:27.038Z,-0.60
2022-11-28T21:16:54.599Z,-0.70
2022-11-28T21:19:21.974Z,-0.60
2022-11-28T21:21:49.139Z,-0.70
2022-11-28T21:24:16.474Z,-0.70
2022-11-28T21:26:48.135Z,-0.70
2022-11-28T21:29:21.109Z,-0.80
2022-11-28T21:31:48.408Z,-0.80
2022-11-28T21:34:16.001Z,-0.80
2022-11-28T21:36:43.888Z,-0.80
2022-11-28T21:39:17.281Z,-0.80
2022-11-28T21:41:44.644Z,-0.80
2022-11-28T21:44:11.831Z,-0.80
2022-11-28T21:46:39.113Z,-0.90
2022-11-28T21:49:06.330Z,-0.90
2022-11-28T21:51:33.557Z,-0.90
2022-11-28T21:54:00.759Z,-1.00
2022-11-28T21:56:28.144Z,-1.00
2022-11-28T21:58:55.358Z,-1.00
2022-11-28T22:01:22.755Z,-1.00
2022-11-28T22:03:50.175Z,-1.10
2022-11-28T22:06:27.466Z,-1.10
2022-11-28T22:08:54.973Z,-1.10
2022-11-28T22:11:22.485Z,-1.10
2022-11-28T22:13:50.957Z,-1.10
2022-11-28T22:16:27.874Z,-1.10
2022-11-28T22:18:59.141Z,-1.10
2022-11-28T22:24:14.242Z,-1.10
2022-11-28T22:26:41.540Z,-1.10
2022-11-28T22:29:08.994Z,-1.20
2022-11-28T22:31:36.418Z,-1.20
2022-11-28T22:34:03.693Z,-1.20
2022-11-28T22:36:30.940Z,-1.20
2022-11-28T22:38:59.471Z,-1.20
2022-11-28T22:41:29.734Z,-1.20
2022-11-28T22:44:02.065Z,-1.20
2022-11-28T22:46:30.882Z,-1.20
2022-11-28T22:49:02.696Z,-1.20
2022-11-28T22:51:31.554Z,-1.20
2022-11-28T22:54:01.356Z,-1.20
2022-11-28T22:56:31.594Z,-1.20
2022-11-28T22:58:59.967Z,-1.20
2022-11-28T23:01:31.275Z,-1.20
2022-11-28T23:03:59.744Z,-1.30
2022-11-28T23:06:31.826Z,-1.30
2022-11-28T23:09:02.494Z,-1.40
2022-11-28T23:11:33.026Z,-1.40
2022-11-28T23:14:02.591Z,-1.30
2022-11-28T23:16:40.090Z,-1.30
2022-11-28T23:19:15.206Z,-1.30
2022-11-28T23:21:45.933Z,-1.30
2022-11-28T23:24:20.922Z,-1.30
2022-11-28T23:26:50.274Z,-1.30
2022-11-28T23:29:18.309Z,-1.40
2022-11-28T23:31:46.938Z,-1.40
2022-11-28T23:34:15.101Z,-1.40
2022-11-28T23:36:47.173Z,-1.40
2022-11-28T23:39:22.716Z,-1.40
2022-11-28T23:41:50.986Z,-1.50
2022-11-28T23:44:19.847Z,-1.40
2022-11-28T23:46:48.159Z,-1.40
2022-11-28T23:49:15.752Z,-1.40
2022-11-28T23:51:43.214Z,-1.50
2022-11-28T23:54:11.900Z,-1.40
2022-11-28T23:56:40.607Z,-1.40
2022-11-28T23:59:10.908Z,-1.40
